Macau International Airport
VMMC : now visible

Aeroporto :











RITROVATECI SU...

 
LOGIN :

Iscrizione | Disclaimer

   EN    FR    IT 

 









Sommario :    VFR   VFR Marginale   IFR   IFR Intensivo   IFR Molto Intensivo
Visibilità : 
Base nubi : 
>= 8 km
>= 3000ft
5 / 8 km
1000 / 3000 ft
1500m / 5 km
500 / 1000 ft
800 / 1500m
200 / 500 ft
< 800m
< 200 ft
Simboli :   Temporali  Nebbia  Neve Forte  Precipitazioni Forti  Vento > 20 kt







- Altitudine del aeroporto : 20 ft
- Codice IATA : MFM


VMMC - Macau International

ULTIMO METAR :
  • 181330Z 00000KT 9000 FEW030 21/20 Q1015 NOSIG

METARs OBSOLETI :
  • 181300Z 00000KT 9000 FEW020 21/20 Q1015 NOSIG
  • 181230Z VRB01KT 9999 FEW035 21/20 Q1015 NOSIG
  • 181200Z 14003KT 100V180 9999 FEW035 21/20 Q1015 NOSIG
  • 181130Z 15006KT 9000 FEW035 21/20 Q1014 NOSIG
  • 181100Z 15006KT 7000 FEW035 21/20 Q1014 NOSIG

TAF TAF VMMC
Valido dal 18 a 12 ore il 19 a 18 ore UTC


181100Z 1812/1918 12008KT 8000 FEW010 SCT020
TEMPO 1821/1904 3500 BR
FIR ZGZU / Asia



MetMap, La meteo Aeronautica in un colpo d'occhio ! - Copyright ORBIFLY Dicembre 2007 - Disclaimer

ORBIFLY MET'MAP TEAM :

Programmazione e sviluppo : Alexandra Zaïnal
Concezione e sviluppo : Baudouin d'Aumeries
Co-Programmazione e sviluppo : Marc-Olivier Méhu
Supporto tecnico e logistico : Manuel Goepfert
Aiuto per la traduzione : Arnaldo La Scala

Contatto : metmap@orbifly.com




FONTI E CREDITI :

   NOAA       Earth
Advisory